Time;durP1;ratioP1;P1;durP2;ratioP2;P2;SDS_P1;SDS_P2;PMS_P1;PMS_P2;Temp;Humidity;BMP_temperature;BMP_pressure;BME280_temperature;BME280_humidity;BME280_pressure;Samples;Min_cycle;Max_cycle;Signal;HPM_P1;HPM_P2
2021/09/16 00:01:07;;;;;;;0.50;0.30;;;18.90;99.90;;;;;;5077674;28;20420;-59
2021/09/16 00:03:34;;;;;;;0.57;0.40;;;18.80;99.90;;;;;;5077122;28;20490;-58
2021/09/16 00:06:01;;;;;;;1.23;0.40;;;18.80;99.90;;;;;;5076327;28;20420;-58
2021/09/16 00:08:28;;;;;;;0.65;0.40;;;18.90;99.90;;;;;;5075876;28;20883;-58
2021/09/16 00:10:55;;;;;;;0.60;0.40;;;19.30;99.90;;;;;;5075789;28;20424;-58
2021/09/16 00:13:22;;;;;;;0.70;0.40;;;19.30;99.90;;;;;;5075853;28;20459;-58
2021/09/16 00:15:51;;;;;;;0.65;0.40;;;19.60;99.90;;;;;;5073003;28;20680;-58
2021/09/16 00:18:17;;;;;;;0.60;0.30;;;19.80;99.90;;;;;;5074489;28;20450;-58
2021/09/16 00:20:44;;;;;;;0.50;0.30;;;19.80;99.90;;;;;;5074323;28;20453;-58
2021/09/16 00:23:11;;;;;;;0.50;0.30;;;19.70;99.90;;;;;;5075783;28;20455;-57
2021/09/16 00:25:38;;;;;;;1.00;0.40;;;19.70;99.90;;;;;;5075255;28;20514;-58
2021/09/16 00:28:05;;;;;;;0.50;0.30;;;19.50;99.90;;;;;;5075153;28;20419;-58
2021/09/16 00:30:32;;;;;;;0.50;0.30;;;19.40;99.90;;;;;;5075109;28;20462;-58
2021/09/16 00:33:01;;;;;;;0.60;0.30;;;19.30;99.90;;;;;;5075562;28;20786;-58
2021/09/16 00:35:28;;;;;;;0.70;0.30;;;19.20;99.90;;;;;;5075468;28;20517;-58
2021/09/16 00:37:55;;;;;;;1.10;0.30;;;19.10;99.90;;;;;;5075320;28;20890;-58
2021/09/16 00:40:22;;;;;;;0.60;0.30;;;19.00;99.90;;;;;;5075885;28;20525;-58
2021/09/16 00:42:49;;;;;;;0.50;0.30;;;19.00;99.90;;;;;;5076059;28;20501;-58
2021/09/16 00:45:16;;;;;;;0.60;0.30;;;18.90;99.90;;;;;;5076325;28;20435;-58
2021/09/16 00:47:45;;;;;;;0.50;0.30;;;18.80;99.90;;;;;;5076179;28;20415;-59
2021/09/16 00:50:15;;;;;;;0.40;0.30;;;18.90;99.90;;;;;;5076522;28;20825;-58
2021/09/16 00:52:42;;;;;;;0.93;0.30;;;18.90;99.90;;;;;;5076753;28;20788;-58
2021/09/16 00:55:11;;;;;;;0.52;0.30;;;18.90;99.90;;;;;;5075974;28;20452;-58
2021/09/16 00:57:39;;;;;;;0.70;0.40;;;18.90;99.90;;;;;;5075031;28;20914;-58
2021/09/16 01:00:08;;;;;;;0.65;0.30;;;18.80;99.90;;;;;;5076079;28;20439;-58
2021/09/16 01:02:36;;;;;;;0.50;0.30;;;18.90;99.90;;;;;;5074968;28;20501;-58
2021/09/16 01:05:05;;;;;;;0.50;0.30;;;18.90;99.90;;;;;;5074940;28;20813;-58
2021/09/16 01:07:36;;;;;;;0.60;0.30;;;18.90;99.90;;;;;;5075697;28;20450;-58
2021/09/16 01:10:05;;;;;;;0.63;0.30;;;18.90;99.90;;;;;;5075272;28;20442;-58
2021/09/16 01:12:32;;;;;;;0.50;0.30;;;18.80;99.90;;;;;;5075649;28;20428;-58
2021/09/16 01:14:59;;;;;;;0.50;0.23;;;18.80;99.90;;;;;;5075983;28;20523;-58
2021/09/16 01:17:26;;;;;;;0.50;0.30;;;18.70;99.90;;;;;;5073400;28;20531;-58
2021/09/16 01:19:55;;;;;;;0.70;0.30;;;18.80;99.90;;;;;;5074496;28;20451;-58
2021/09/16 01:22:24;;;;;;;0.40;0.20;;;18.80;99.90;;;;;;5074482;28;20411;-59
2021/09/16 01:24:53;;;;;;;0.40;0.30;;;18.90;99.90;;;;;;5074900;28;20427;-57
2021/09/16 01:27:19;;;;;;;0.50;0.28;;;18.90;99.90;;;;;;5076321;28;20508;-58
2021/09/16 01:29:46;;;;;;;0.55;0.30;;;18.80;99.90;;;;;;5075781;28;20742;-58
2021/09/16 01:32:14;;;;;;;1.70;0.30;;;18.70;99.90;;;;;;5074739;28;20502;-57
2021/09/16 01:34:40;;;;;;;0.63;0.30;;;18.60;99.90;;;;;;5075646;28;20497;-58
2021/09/16 01:37:07;;;;;;;1.60;0.30;;;18.70;99.90;;;;;;5075362;28;20466;-58
2021/09/16 01:39:36;;;;;;;0.50;0.30;;;18.70;99.90;;;;;;5075672;28;20492;-57
2021/09/16 01:42:06;;;;;;;0.40;0.28;;;18.70;99.90;;;;;;5074202;28;20916;-57
2021/09/16 01:44:33;;;;;;;0.80;0.30;;;18.60;99.90;;;;;;5075082;28;20524;-57
2021/09/16 01:47:02;;;;;;;1.90;0.40;;;18.50;99.90;;;;;;5075047;28;20418;-59
2021/09/16 01:49:30;;;;;;;0.60;0.40;;;18.40;99.90;;;;;;5075461;28;20754;-56
2021/09/16 01:51:57;;;;;;;0.70;0.40;;;18.30;99.90;;;;;;5075384;28;20454;-57
2021/09/16 01:54:24;;;;;;;0.80;0.30;;;18.40;99.90;;;;;;5075711;28;20521;-58
2021/09/16 01:56:51;;;;;;;0.60;0.40;;;18.50;99.90;;;;;;5075723;28;20454;-57
2021/09/16 01:59:20;;;;;;;0.50;0.30;;;18.60;99.90;;;;;;5075613;28;20424;-56
2021/09/16 02:01:47;;;;;;;0.50;0.20;;;18.60;99.90;;;;;;5074879;28;20795;-57
2021/09/16 02:04:14;;;;;;;0.90;0.30;;;18.60;99.90;;;;;;5075878;28;20481;-57
2021/09/16 02:06:41;;;;;;;0.50;0.30;;;18.70;99.90;;;;;;5075369;28;20855;-57
2021/09/16 02:09:08;;;;;;;0.90;0.30;;;18.80;99.90;;;;;;5074971;28;20803;-57
2021/09/16 02:11:35;;;;;;;0.50;0.30;;;18.90;99.90;;;;;;5075226;28;20525;-57
2021/09/16 02:14:02;;;;;;;1.70;0.30;;;18.80;99.90;;;;;;5075325;28;20459;-57
2021/09/16 02:16:30;;;;;;;0.57;0.30;;;18.90;99.90;;;;;;5073750;28;20420;-57
2021/09/16 02:18:57;;;;;;;0.50;0.20;;;18.90;99.90;;;;;;5075098;28;20802;-57
2021/09/16 02:21:24;;;;;;;0.60;0.30;;;19.00;99.90;;;;;;5074899;28;20649;-57
2021/09/16 02:23:51;;;;;;;0.50;0.30;;;19.20;99.90;;;;;;5074926;28;20455;-57
2021/09/16 02:26:18;;;;;;;0.40;0.30;;;19.40;99.90;;;;;;5074957;28;20498;-57
2021/09/16 02:28:47;;;;;;;0.77;0.38;;;19.50;99.90;;;;;;5074308;28;20450;-56
2021/09/16 02:31:14;;;;;;;1.50;0.30;;;19.50;99.90;;;;;;5075073;28;20903;-57
2021/09/16 02:33:43;;;;;;;0.57;0.30;;;19.60;99.90;;;;;;5075127;28;20431;-57
2021/09/16 02:36:09;;;;;;;0.40;0.30;;;19.70;99.90;;;;;;5074795;28;20734;-57
2021/09/16 02:38:36;;;;;;;0.60;0.30;;;19.70;99.90;;;;;;5073289;28;20521;-58
2021/09/16 02:41:03;;;;;;;0.50;0.30;;;19.50;99.90;;;;;;5072865;28;20527;-60
2021/09/16 02:43:30;;;;;;;0.50;0.30;;;19.40;99.90;;;;;;5073711;28;20489;-56
2021/09/16 02:45:57;;;;;;;0.50;0.30;;;19.40;99.90;;;;;;5073479;28;20854;-58
2021/09/16 02:48:24;;;;;;;0.50;0.30;;;19.40;99.90;;;;;;5072940;28;20510;-56
2021/09/16 02:50:52;;;;;;;1.10;0.30;;;19.30;99.90;;;;;;5072574;28;20511;-56
2021/09/16 02:53:20;;;;;;;0.70;0.30;;;19.30;99.90;;;;;;5073011;28;20459;-57
2021/09/16 02:55:46;;;;;;;0.50;0.30;;;19.30;99.90;;;;;;5073400;28;20486;-56
2021/09/16 02:58:13;;;;;;;0.40;0.30;;;19.30;99.90;;;;;;5072884;28;20858;-57
2021/09/16 03:00:40;;;;;;;0.50;0.30;;;19.10;99.90;;;;;;5073428;28;20435;-57
2021/09/16 03:03:08;;;;;;;0.50;0.30;;;19.00;99.90;;;;;;5074173;28;20416;-55
2021/09/16 03:05:35;;;;;;;1.00;0.30;;;18.80;99.90;;;;;;5074571;28;20431;-57
2021/09/16 03:08:04;;;;;;;1.10;0.30;;;18.80;99.90;;;;;;5074314;28;20473;-56
2021/09/16 03:10:31;;;;;;;0.50;0.30;;;18.80;99.90;;;;;;5074748;28;20498;-57
2021/09/16 03:12:59;;;;;;;0.50;0.30;;;18.80;99.90;;;;;;5074215;28;20454;-57
2021/09/16 03:15:26;;;;;;;0.50;0.30;;;18.80;99.90;;;;;;5073064;28;20468;-56
2021/09/16 03:17:52;;;;;;;0.40;0.20;;;18.90;99.90;;;;;;5071460;28;20466;-57
2021/09/16 03:20:20;;;;;;;0.45;0.30;;;18.90;99.90;;;;;;5075391;28;20829;-57
2021/09/16 03:22:47;;;;;;;0.70;0.30;;;18.90;99.90;;;;;;5077069;28;20726;-57
2021/09/16 03:25:15;;;;;;;0.80;0.30;;;18.80;99.90;;;;;;5076890;28;20518;-57
2021/09/16 03:27:42;;;;;;;0.80;0.30;;;18.70;99.90;;;;;;5076447;28;20466;-57
2021/09/16 03:30:13;;;;;;;1.00;1.00;;;18.70;99.90;;;;;;5077037;28;20843;-57
2021/09/16 03:32:40;;;;;;;0.60;0.32;;;18.60;99.90;;;;;;5075274;28;20430;-57
2021/09/16 03:35:07;;;;;;;0.90;0.30;;;18.50;99.90;;;;;;5076164;28;20760;-57
2021/09/16 03:37:35;;;;;;;0.40;0.30;;;18.50;99.90;;;;;;5074709;28;20419;-58
2021/09/16 03:40:03;;;;;;;0.60;0.40;;;18.40;99.90;;;;;;5074744;28;20530;-57
2021/09/16 03:42:32;;;;;;;1.30;0.30;;;18.40;99.90;;;;;;5074604;28;20492;-56
2021/09/16 03:44:59;;;;;;;1.00;0.40;;;18.50;99.90;;;;;;5075321;28;20481;-57
2021/09/16 03:47:26;;;;;;;0.68;0.30;;;18.50;99.90;;;;;;5074331;28;20423;-57
2021/09/16 03:49:53;;;;;;;0.70;0.30;;;18.40;99.90;;;;;;5075019;28;20894;-57
2021/09/16 03:52:21;;;;;;;0.60;0.30;;;18.40;99.90;;;;;;5074993;28;20531;-56
2021/09/16 03:54:48;;;;;;;0.60;0.30;;;18.30;99.90;;;;;;5076041;28;20431;-56
2021/09/16 03:57:15;;;;;;;0.60;0.40;;;18.30;99.90;;;;;;5075682;28;20466;-56
2021/09/16 03:59:44;;;;;;;0.50;0.30;;;18.20;99.90;;;;;;5075674;28;20514;-57
2021/09/16 04:02:11;;;;;;;0.50;0.30;;;18.20;99.90;;;;;;5075718;28;20512;-54
2021/09/16 04:04:38;;;;;;;0.50;0.30;;;18.10;99.90;;;;;;5076079;28;20597;-56
2021/09/16 04:07:05;;;;;;;0.50;0.30;;;18.10;99.90;;;;;;5076163;28;20514;-56
2021/09/16 04:09:32;;;;;;;2.00;0.30;;;18.20;99.90;;;;;;5076243;28;20885;-57
2021/09/16 04:11:59;;;;;;;0.80;0.30;;;18.20;99.90;;;;;;5091254;28;20522;-55
2021/09/16 04:14:26;;;;;;;1.42;0.40;;;18.30;99.90;;;;;;5093808;28;20514;-58
2021/09/16 04:16:54;;;;;;;0.60;0.30;;;18.40;99.90;;;;;;5092324;28;20501;-57
2021/09/16 04:19:22;;;;;;;0.50;0.30;;;18.40;99.90;;;;;;5094479;28;20426;-57
2021/09/16 04:21:49;;;;;;;0.50;0.30;;;18.40;99.90;;;;;;5095671;28;20943;-57
2021/09/16 04:24:16;;;;;;;0.60;0.30;;;18.30;99.90;;;;;;5095673;28;20487;-57
2021/09/16 04:26:44;;;;;;;1.17;0.40;;;18.40;99.90;;;;;;5095086;28;20429;-57
2021/09/16 04:29:12;;;;;;;0.50;0.30;;;18.50;99.90;;;;;;5095378;28;20432;-58
2021/09/16 04:31:39;;;;;;;1.10;0.30;;;18.60;99.90;;;;;;5094303;28;20410;-58
2021/09/16 04:34:07;;;;;;;0.63;0.40;;;18.70;99.90;;;;;;5095293;28;20911;-56
2021/09/16 04:36:35;;;;;;;0.80;0.40;;;18.80;99.90;;;;;;5095101;28;20857;-57
2021/09/16 04:39:03;;;;;;;1.13;0.40;;;18.80;99.90;;;;;;5095204;28;20729;-57
2021/09/16 04:41:30;;;;;;;1.30;0.40;;;18.70;99.90;;;;;;5094635;28;20433;-58
2021/09/16 04:43:57;;;;;;;0.50;0.30;;;18.60;99.90;;;;;;5095879;28;20457;-58
2021/09/16 04:46:25;;;;;;;0.60;0.40;;;18.60;99.90;;;;;;5096855;28;20457;-57
2021/09/16 04:48:52;;;;;;;0.50;0.30;;;18.60;99.90;;;;;;5096249;28;20819;-57
2021/09/16 04:51:20;;;;;;;0.80;0.40;;;18.60;99.90;;;;;;5095291;28;20453;-58
2021/09/16 04:53:47;;;;;;;0.60;0.30;;;18.60;99.90;;;;;;5094729;28;20488;-58
2021/09/16 04:56:14;;;;;;;0.55;0.35;;;18.50;99.90;;;;;;5095503;28;20479;-58
2021/09/16 04:58:41;;;;;;;0.50;0.30;;;18.80;99.90;;;;;;5095376;28;20512;-58
2021/09/16 05:01:08;;;;;;;0.50;0.30;;;18.80;99.90;;;;;;5095733;28;20514;-58
2021/09/16 05:03:35;;;;;;;0.60;0.30;;;18.80;99.90;;;;;;5096082;28;20524;-57
2021/09/16 05:06:02;;;;;;;0.60;0.30;;;18.90;99.90;;;;;;5095249;28;20567;-57
2021/09/16 05:08:30;;;;;;;0.60;0.40;;;18.90;99.90;;;;;;5093654;28;20434;-58
2021/09/16 05:10:57;;;;;;;0.65;0.40;;;18.90;99.90;;;;;;5093904;28;20710;-57
2021/09/16 05:13:24;;;;;;;0.80;0.40;;;18.90;99.90;;;;;;5094129;28;20479;-56
2021/09/16 05:15:51;;;;;;;0.90;0.30;;;18.90;99.90;;;;;;5092913;28;20422;-58
2021/09/16 05:18:19;;;;;;;0.65;0.40;;;19.00;99.90;;;;;;5093871;28;20497;-56
2021/09/16 05:20:46;;;;;;;0.60;0.30;;;19.10;99.90;;;;;;5092354;28;20461;-58
2021/09/16 05:23:13;;;;;;;0.65;0.40;;;19.40;99.90;;;;;;5092033;28;20457;-54
2021/09/16 05:25:41;;;;;;;0.67;0.40;;;19.40;99.90;;;;;;5091085;28;21060;-56
2021/09/16 05:28:08;;;;;;;0.80;0.50;;;19.40;99.90;;;;;;5090786;28;20474;-56
2021/09/16 05:30:35;;;;;;;0.90;0.40;;;19.50;99.90;;;;;;5089939;28;20460;-54
2021/09/16 05:33:07;;;;;;;0.70;0.40;;;19.50;99.90;;;;;;5091173;28;20509;-56
2021/09/16 05:35:35;;;;;;;0.60;0.40;;;19.40;99.90;;;;;;5093348;28;20833;-56
2021/09/16 05:38:02;;;;;;;0.90;0.40;;;19.40;99.90;;;;;;5094023;28;20426;-56
2021/09/16 05:40:29;;;;;;;0.70;0.50;;;19.30;99.90;;;;;;5094172;28;20698;-57
2021/09/16 05:42:57;;;;;;;0.50;0.40;;;19.10;99.90;;;;;;5090657;28;20479;-56
2021/09/16 05:45:25;;;;;;;0.60;0.40;;;19.00;99.90;;;;;;5093268;28;20512;-57
2021/09/16 05:47:52;;;;;;;1.45;0.40;;;18.80;99.90;;;;;;5093283;28;20757;-57
2021/09/16 05:50:19;;;;;;;0.70;0.50;;;18.70;99.90;;;;;;5092037;28;20437;-57
2021/09/16 05:52:46;;;;;;;0.73;0.40;;;18.70;99.90;;;;;;5092293;28;20413;-58
2021/09/16 05:55:13;;;;;;;0.80;0.40;;;18.70;99.90;;;;;;5093222;28;20478;-54
2021/09/16 05:57:40;;;;;;;0.70;0.30;;;18.80;99.90;;;;;;5092539;28;20825;-55
2021/09/16 06:00:10;;;;;;;1.10;0.40;;;18.80;99.90;;;;;;5091759;28;20714;-55
2021/09/16 06:02:37;;;;;;;0.60;0.40;;;19.00;99.90;;;;;;5092898;28;20483;-56
2021/09/16 06:05:05;;;;;;;0.60;0.38;;;19.10;99.90;;;;;;5091950;28;20425;-57
2021/09/16 06:07:33;;;;;;;0.77;0.40;;;19.20;99.90;;;;;;5090777;28;20413;-57
2021/09/16 06:10:00;;;;;;;0.60;0.40;;;19.40;99.90;;;;;;5091741;28;20499;-57
2021/09/16 06:12:27;;;;;;;0.93;0.50;;;19.60;99.90;;;;;;5090465;28;20788;-57
2021/09/16 06:14:54;;;;;;;1.48;0.50;;;19.60;99.90;;;;;;5090751;28;20502;-57
2021/09/16 06:17:24;;;;;;;0.60;0.40;;;19.60;99.90;;;;;;5087204;28;20426;-56
2021/09/16 06:19:51;;;;;;;0.95;0.40;;;19.50;99.90;;;;;;5087733;28;20529;-57
2021/09/16 06:22:18;;;;;;;1.00;0.40;;;19.50;99.90;;;;;;5088712;28;20483;-57
2021/09/16 06:24:45;;;;;;;0.75;0.50;;;19.40;99.90;;;;;;5088315;28;20678;-58
2021/09/16 06:27:12;;;;;;;1.60;0.47;;;19.50;99.90;;;;;;5089778;28;20422;-55
2021/09/16 06:29:39;;;;;;;0.90;0.40;;;19.40;99.90;;;;;;5089933;28;20516;-55
2021/09/16 06:32:07;;;;;;;1.90;0.50;;;19.50;99.90;;;;;;5088868;28;20483;-57
2021/09/16 06:34:36;;;;;;;1.17;0.50;;;19.70;99.90;;;;;;5091142;28;20429;-57
2021/09/16 06:37:06;;;;;;;0.60;0.40;;;19.80;99.90;;;;;;5090089;28;20421;-56
2021/09/16 06:39:33;;;;;;;2.27;0.50;;;19.80;99.90;;;;;;5091821;28;20506;-55
2021/09/16 06:42:00;;;;;;;0.65;0.40;;;20.00;99.90;;;;;;5091778;28;20501;-56
2021/09/16 06:44:27;;;;;;;0.60;0.40;;;20.00;99.90;;;;;;5089361;28;20517;-58
2021/09/16 06:46:54;;;;;;;0.50;0.30;;;20.00;99.90;;;;;;5090333;28;20859;-59
2021/09/16 06:49:22;;;;;;;0.70;0.40;;;20.00;99.90;;;;;;5089684;28;20783;-58
2021/09/16 06:51:50;;;;;;;0.60;0.40;;;20.10;99.90;;;;;;5089908;28;20530;-58
2021/09/16 06:54:17;;;;;;;0.60;0.30;;;20.10;99.90;;;;;;5090054;28;20829;-56
2021/09/16 06:56:44;;;;;;;0.88;0.50;;;20.30;99.90;;;;;;5094156;28;20504;-52
2021/09/16 06:59:11;;;;;;;1.40;0.40;;;20.30;99.90;;;;;;5094140;28;20455;-54
2021/09/16 07:01:38;;;;;;;0.70;0.40;;;20.50;99.90;;;;;;5096561;28;20542;-55
2021/09/16 07:04:06;;;;;;;1.05;0.50;;;20.40;99.90;;;;;;5095496;28;20782;-56
2021/09/16 07:06:32;;;;;;;1.10;0.40;;;20.40;99.90;;;;;;5095058;28;20417;-54
2021/09/16 07:09:01;;;;;;;0.90;0.40;;;20.40;99.90;;;;;;5093235;28;20789;-55
2021/09/16 07:11:28;;;;;;;0.80;0.40;;;20.40;99.90;;;;;;5093415;28;20710;-55
2021/09/16 07:13:55;;;;;;;1.00;0.50;;;20.50;99.90;;;;;;5093255;28;20421;-54
2021/09/16 07:16:22;;;;;;;0.70;0.40;;;20.50;99.90;;;;;;5092613;28;20598;-54
2021/09/16 07:18:49;;;;;;;0.70;0.40;;;20.50;99.90;;;;;;5094713;28;20479;-54
2021/09/16 07:21:16;;;;;;;0.70;0.40;;;20.30;99.90;;;;;;5093281;28;20835;-55
2021/09/16 07:23:43;;;;;;;0.70;0.40;;;20.30;99.90;;;;;;5093842;28;20425;-52
2021/09/16 07:26:12;;;;;;;0.70;0.40;;;20.20;99.90;;;;;;5093516;28;20483;-55
2021/09/16 07:28:38;;;;;;;1.20;0.50;;;20.00;99.90;;;;;;5092369;28;20434;-56
2021/09/16 07:31:06;;;;;;;0.70;0.40;;;20.00;99.90;;;;;;5093199;28;20466;-55
2021/09/16 07:33:33;;;;;;;0.75;0.40;;;20.00;99.90;;;;;;5093049;28;20425;-51
2021/09/16 07:36:00;;;;;;;1.10;0.40;;;20.00;99.90;;;;;;5093912;28;20449;-54
2021/09/16 07:38:28;;;;;;;1.48;0.40;;;19.90;99.90;;;;;;5092753;28;20429;-52
2021/09/16 07:40:58;;;;;;;1.20;0.50;;;20.10;99.90;;;;;;5093590;28;20421;-52
2021/09/16 07:43:26;;;;;;;1.05;0.65;;;20.00;99.90;;;;;;5095841;28;20449;-54
2021/09/16 07:45:53;;;;;;;2.10;0.90;;;20.00;99.90;;;;;;5094597;28;20446;-54
2021/09/16 07:48:21;;;;;;;0.90;0.70;;;19.70;99.90;;;;;;5094133;28;20729;-53
2021/09/16 07:50:50;;;;;;;1.10;0.70;;;19.60;99.90;;;;;;5094217;28;20428;-55
2021/09/16 07:53:17;;;;;;;1.00;0.60;;;19.60;99.90;;;;;;5093539;28;20445;-56
2021/09/16 07:55:45;;;;;;;0.93;0.60;;;19.60;99.90;;;;;;5092581;28;20414;-57
2021/09/16 07:58:12;;;;;;;1.08;0.60;;;19.50;99.90;;;;;;5094213;28;20848;-57
2021/09/16 08:00:41;;;;;;;0.90;0.60;;;19.50;99.90;;;;;;5093671;28;20884;-54
2021/09/16 08:03:08;;;;;;;0.90;0.60;;;19.60;99.90;;;;;;5093877;28;20494;-54
2021/09/16 08:05:35;;;;;;;0.70;0.50;;;19.60;99.90;;;;;;5093759;28;20433;-55
2021/09/16 08:08:02;;;;;;;0.80;0.50;;;19.10;99.90;;;;;;5095219;28;20425;-56
2021/09/16 08:10:29;;;;;;;1.13;0.63;;;19.00;99.90;;;;;;5094715;28;20410;-54
2021/09/16 08:12:56;;;;;;;0.90;0.60;;;19.00;99.90;;;;;;5093978;28;20906;-55
2021/09/16 08:15:23;;;;;;;1.50;0.57;;;18.90;99.90;;;;;;5095319;28;20479;-56
2021/09/16 08:17:53;;;;;;;0.70;0.50;;;19.10;99.90;;;;;;5092203;28;20833;-57
2021/09/16 08:20:20;;;;;;;0.60;0.40;;;19.20;99.90;;;;;;5091710;28;20718;-57
2021/09/16 08:22:47;;;;;;;0.70;0.40;;;19.30;99.90;;;;;;5093305;28;20425;-57
2021/09/16 08:25:16;;;;;;;0.50;0.30;;;19.50;99.90;;;;;;5095515;28;20491;-57
2021/09/16 08:27:43;;;;;;;0.60;0.30;;;19.60;99.90;;;;;;5095324;28;20508;-59
2021/09/16 08:30:14;;;;;;;0.40;0.30;;;19.70;99.90;;;;;;5095355;28;20438;-58
2021/09/16 08:32:41;;;;;;;0.45;0.30;;;19.50;99.90;;;;;;5095308;28;20464;-59
2021/09/16 08:35:11;;;;;;;0.50;0.30;;;19.50;99.90;;;;;;5096316;28;20448;-59
2021/09/16 08:37:38;;;;;;;0.40;0.20;;;19.30;99.90;;;;;;5096397;28;20422;-60
2021/09/16 08:40:08;;;;;;;0.50;0.30;;;19.60;99.90;;;;;;5095920;28;20906;-59
2021/09/16 08:42:38;;;;;;;0.40;0.20;;;19.60;99.90;;;;;;5095792;28;20430;-59
2021/09/16 08:45:08;;;;;;;0.50;0.28;;;19.60;99.90;;;;;;5097314;28;20775;-59
2021/09/16 08:47:37;;;;;;;0.40;0.20;;;19.60;99.90;;;;;;5095069;28;20422;-59
2021/09/16 08:50:05;;;;;;;0.40;0.20;;;19.50;99.90;;;;;;5093708;28;20430;-58
2021/09/16 08:52:37;;;;;;;0.40;0.20;;;19.30;99.90;;;;;;5093457;28;20505;-58
2021/09/16 08:55:06;;;;;;;0.40;0.20;;;19.30;99.90;;;;;;5093312;28;20922;-58
2021/09/16 08:57:37;;;;;;;0.50;0.30;;;19.40;99.90;;;;;;5093905;28;20421;-58
2021/09/16 09:00:15;;;;;;;0.40;0.20;;;19.10;99.90;;;;;;5094506;28;20461;-58
2021/09/16 09:02:44;;;;;;;0.50;0.30;;;19.20;99.90;;;;;;5094082;28;20479;-58
2021/09/16 09:05:11;;;;;;;0.30;0.20;;;19.20;99.90;;;;;;5094028;28;20418;-57
2021/09/16 09:07:41;;;;;;;0.40;0.20;;;19.20;99.90;;;;;;5093656;28;20482;-56
2021/09/16 09:10:30;;;;;;;0.40;0.20;;;19.20;99.90;;;;;;5093186;28;20458;-56
2021/09/16 09:12:58;;;;;;;0.80;0.50;;;19.20;99.90;;;;;;5092795;28;20425;-52
2021/09/16 09:15:26;;;;;;;0.60;0.40;;;19.00;99.90;;;;;;5092716;28;20426;-53
2021/09/16 09:18:04;;;;;;;0.77;0.50;;;19.00;99.90;;;;;;5090293;28;20433;-54
2021/09/16 09:20:31;;;;;;;0.80;0.50;;;19.00;99.90;;;;;;5092679;28;20426;-55
2021/09/16 09:23:00;;;;;;;0.80;0.60;;;19.00;99.90;;;;;;5092684;28;20429;-54
2021/09/16 09:25:29;;;;;;;1.90;0.70;;;19.00;99.90;;;;;;5092973;28;20909;-55
2021/09/16 09:27:57;;;;;;;1.23;0.80;;;19.00;99.90;;;;;;5093828;28;20494;-55
2021/09/16 09:30:27;;;;;;;1.30;0.90;;;19.00;99.90;;;;;;5093886;28;20426;-54
2021/09/16 09:32:57;;;;;;;1.08;0.80;;;19.00;99.90;;;;;;5091603;28;20418;-56
2021/09/16 09:35:33;;;;;;;1.20;0.70;;;19.10;99.90;;;;;;5091326;28;20750;-53
2021/09/16 09:38:05;;;;;;;0.80;0.60;;;19.10;99.90;;;;;;5091867;28;20422;-54
2021/09/16 09:40:34;;;;;;;1.33;0.73;;;19.20;99.90;;;;;;5088582;28;20426;-54
2021/09/16 09:43:20;;;;;;;0.90;0.60;;;19.20;99.90;;;;;;5086925;28;20518;-53
2021/09/16 09:46:03;;;;;;;0.90;0.60;;;19.20;99.90;;;;;;5082448;28;20421;-56
2021/09/16 09:48:32;;;;;;;1.00;0.63;;;18.90;99.90;;;;;;5088348;28;20864;-55
2021/09/16 09:50:59;;;;;;;0.80;0.60;;;18.80;99.90;;;;;;5089900;28;20422;-53
2021/09/16 09:53:27;;;;;;;0.80;0.60;;;19.10;99.90;;;;;;5090746;28;20425;-55
2021/09/16 09:55:55;;;;;;;1.20;0.70;;;19.20;99.90;;;;;;5091786;28;20410;-53
2021/09/16 09:58:33;;;;;;;0.90;0.60;;;19.40;99.90;;;;;;5091651;28;20857;-55
2021/09/16 10:01:29;;;;;;;1.08;0.70;;;19.30;99.90;;;;;;5092906;28;20856;-54
2021/09/16 10:03:56;;;;;;;1.25;0.70;;;19.10;99.90;;;;;;5093278;28;20529;-51
2021/09/16 10:06:34;;;;;;;1.10;0.80;;;19.30;99.90;;;;;;5089762;28;20483;-49
2021/09/16 10:09:10;;;;;;;1.70;0.73;;;19.40;99.90;;;;;;5073902;28;20425;-50
2021/09/16 10:11:37;;;;;;;1.50;1.00;;;19.40;99.90;;;;;;5089372;28;20426;-50
2021/09/16 10:14:06;;;;;;;1.80;1.00;;;19.10;99.90;;;;;;5089593;28;20921;-56
2021/09/16 10:16:33;;;;;;;1.20;0.85;;;18.80;99.90;;;;;;5089869;28;20535;-57
2021/09/16 10:19:00;;;;;;;1.60;0.90;;;18.70;99.90;;;;;;5092651;28;21012;-59
2021/09/16 10:21:27;;;;;;;2.00;0.90;;;18.70;99.90;;;;;;5092012;28;20838;-58
2021/09/16 10:23:55;;;;;;;1.40;0.90;;;18.90;99.90;;;;;;5090873;28;20434;-58
2021/09/16 10:26:35;;;;;;;2.10;0.90;;;19.20;99.90;;;;;;5088943;28;20521;-58
2021/09/16 10:29:04;;;;;;;1.23;0.80;;;19.40;99.90;;;;;;5087559;28;20514;-58
2021/09/16 10:31:32;;;;;;;2.00;1.10;;;19.60;99.90;;;;;;5090136;28;20501;-58
2021/09/16 10:33:59;;;;;;;1.90;1.10;;;19.30;99.90;;;;;;5090003;28;20491;-58
2021/09/16 10:36:26;;;;;;;1.40;1.00;;;19.30;99.90;;;;;;5090615;28;20491;-58
2021/09/16 10:38:55;;;;;;;1.60;1.00;;;19.10;99.90;;;;;;5089882;28;20738;-59
2021/09/16 10:41:26;;;;;;;1.50;1.10;;;19.30;99.90;;;;;;5090123;28;20577;-60
2021/09/16 10:44:22;;;;;;;1.40;0.90;;;19.30;99.90;;;;;;5089626;28;20457;-59
2021/09/16 10:46:52;;;;;;;1.53;1.03;;;19.50;99.90;;;;;;5094154;28;20418;-59
2021/09/16 10:49:30;;;;;;;1.48;1.10;;;19.60;99.90;;;;;;5072692;28;20835;-59
2021/09/16 10:51:59;;;;;;;1.45;1.00;;;19.50;99.90;;;;;;5078834;28;20425;-59
2021/09/16 10:54:38;;;;;;;2.53;1.30;;;19.50;99.90;;;;;;5093689;28;20469;-59
2021/09/16 10:57:13;;;;;;;2.30;1.50;;;19.30;99.90;;;;;;5092836;28;20808;-59
2021/09/16 11:00:08;;;;;;;2.10;1.67;;;19.20;99.90;;;;;;5091818;28;20421;-59
2021/09/16 11:03:17;;;;;;;1.60;1.30;;;19.00;99.90;;;;;;5090477;28;20428;-59
2021/09/16 11:06:02;;;;;;;2.30;1.27;;;18.90;99.90;;;;;;5092832;28;20428;-59
2021/09/16 11:09:06;;;;;;;2.50;1.50;;;19.20;99.90;;;;;;5092960;28;20483;-59
2021/09/16 11:11:50;;;;;;;2.42;1.60;;;19.40;99.90;;;;;;5093769;28;20784;-59
2021/09/16 11:14:42;;;;;;;2.42;1.73;;;19.30;99.90;;;;;;5092939;28;20421;-59
2021/09/16 11:17:12;;;;;;;2.28;1.20;;;19.30;99.90;;;;;;5073587;28;20437;-59
2021/09/16 11:19:46;;;;;;;2.20;1.60;;;19.50;99.90;;;;;;5093631;28;20434;-59
2021/09/16 11:22:20;;;;;;;2.17;1.45;;;19.60;99.90;;;;;;5092535;28;20476;-59
2021/09/16 11:24:47;;;;;;;1.90;1.58;;;19.70;99.90;;;;;;5092668;28;20426;-58
2021/09/16 11:27:25;;;;;;;2.58;1.35;;;19.60;99.90;;;;;;5092874;28;20934;-59
2021/09/16 11:29:52;;;;;;;2.33;1.50;;;19.60;99.90;;;;;;5093375;28;20859;-58
2021/09/16 11:32:21;;;;;;;2.20;1.80;;;19.50;99.90;;;;;;5093433;28;20958;-58
2021/09/16 11:34:53;;;;;;;2.75;1.50;;;19.60;99.90;;;;;;5093499;28;20518;-58
2021/09/16 11:37:28;;;;;;;3.47;1.40;;;19.60;99.90;;;;;;5091094;28;20740;-58
2021/09/16 11:40:12;;;;;;;3.20;1.65;;;19.50;99.90;;;;;;5091604;28;20441;-58
2021/09/16 11:42:41;;;;;;;2.70;1.30;;;19.50;99.90;;;;;;5096274;28;20868;-59
2021/09/16 11:45:14;;;;;;;2.08;1.40;;;19.60;99.90;;;;;;5096003;28;20418;-58
2021/09/16 11:47:46;;;;;;;1.90;1.30;;;19.80;99.90;;;;;;5096124;28;20500;-59
2021/09/16 11:50:23;;;;;;;3.10;1.50;;;20.10;99.90;;;;;;5095480;28;20856;-59
2021/09/16 11:52:55;;;;;;;1.70;1.20;;;20.40;99.90;;;;;;5096007;28;20413;-58
2021/09/16 11:55:22;;;;;;;3.43;1.60;;;20.50;99.90;;;;;;5095330;28;20792;-60
2021/09/16 11:58:05;;;;;;;3.95;1.80;;;20.50;99.90;;;;;;5095627;28;20417;-59
2021/09/16 12:00:36;;;;;;;3.25;1.90;;;20.10;99.90;;;;;;5095786;28;20454;-59
2021/09/16 12:03:05;;;;;;;3.20;1.90;;;19.80;99.90;;;;;;5095207;28;20425;-59
2021/09/16 12:05:39;;;;;;;2.10;1.70;;;19.40;99.90;;;;;;5094295;28;20414;-60
2021/09/16 12:08:09;;;;;;;5.15;2.95;;;19.60;99.90;;;;;;5096003;28;20428;-61
2021/09/16 12:10:38;;;;;;;4.00;2.78;;;19.40;99.90;;;;;;5094588;28;20409;-61
2021/09/16 12:13:06;;;;;;;4.07;3.03;;;19.00;99.90;;;;;;5094602;28;20410;-60
2021/09/16 12:15:34;;;;;;;2.90;2.17;;;18.80;99.90;;;;;;5095225;28;20417;-60
2021/09/16 12:18:01;;;;;;;4.15;2.90;;;18.90;99.90;;;;;;5093886;28;20783;-60
2021/09/16 12:20:30;;;;;;;2.80;1.98;;;19.30;99.90;;;;;;5094769;28;20405;-60
2021/09/16 12:22:57;;;;;;;3.30;2.13;;;19.60;99.90;;;;;;5094183;28;20887;-60
2021/09/16 12:25:26;;;;;;;4.75;2.90;;;19.80;99.90;;;;;;5091633;28;20949;-60
2021/09/16 12:28:07;;;;;;;3.88;2.72;;;19.80;99.90;;;;;;5093254;28;20519;-60
2021/09/16 12:30:38;;;;;;;3.80;2.50;;;19.70;99.90;;;;;;5093664;28;20764;-59
2021/09/16 12:33:27;;;;;;;4.90;3.08;;;19.50;99.90;;;;;;5093666;28;20418;-61
2021/09/16 12:36:10;;;;;;;5.80;4.80;;;19.60;99.90;;;;;;5092678;28;20417;-58
2021/09/16 12:38:38;;;;;;;5.88;3.92;;;19.60;99.90;;;;;;5091218;28;20425;-60
2021/09/16 12:41:21;;;;;;;6.10;4.33;;;19.20;99.90;;;;;;5092407;28;20460;-57
2021/09/16 12:43:58;;;;;;;5.30;3.30;;;19.20;99.90;;;;;;5094480;28;21035;-55
2021/09/16 12:46:26;;;;;;;6.40;4.13;;;19.30;99.90;;;;;;5094679;28;20437;-53
2021/09/16 12:48:53;;;;;;;6.50;3.78;;;19.30;99.90;;;;;;5092869;28;20538;-55
2021/09/16 12:51:22;;;;;;;4.35;3.47;;;19.40;99.90;;;;;;5092885;28;20765;-55
2021/09/16 12:53:50;;;;;;;4.95;4.03;;;19.80;99.90;;;;;;5091505;28;20426;-54
2021/09/16 12:56:18;;;;;;;6.55;4.80;;;19.70;99.90;;;;;;5092893;28;20445;-55
2021/09/16 12:58:45;;;;;;;7.72;5.43;;;19.50;99.90;;;;;;5095195;28;20851;-57